sensor_id;sensor_type;location;lat;lon;timestamp;P1;durP1;ratioP1;P2;durP2;ratioP2
12356;SDS011;6243;51.244;6.774;2024-02-28T00:00:36;27.03;;;17.43;;
12356;SDS011;6243;51.244;6.774;2024-02-28T00:03:02;29.40;;;18.00;;
12356;SDS011;6243;51.244;6.774;2024-02-28T00:05:28;26.07;;;16.80;;
12356;SDS011;6243;51.244;6.774;2024-02-28T00:07:54;28.13;;;17.43;;
12356;SDS011;6243;51.244;6.774;2024-02-28T00:10:21;29.43;;;17.20;;
12356;SDS011;6243;51.244;6.774;2024-02-28T00:12:46;27.77;;;17.60;;
12356;SDS011;6243;51.244;6.774;2024-02-28T00:15:12;30.53;;;17.67;;
12356;SDS011;6243;51.244;6.774;2024-02-28T00:17:38;29.30;;;17.53;;
12356;SDS011;6243;51.244;6.774;2024-02-28T00:20:04;31.53;;;17.87;;
12356;SDS011;6243;51.244;6.774;2024-02-28T00:22:30;27.37;;;17.17;;
12356;SDS011;6243;51.244;6.774;2024-02-28T00:24:56;29.47;;;17.63;;
12356;SDS011;6243;51.244;6.774;2024-02-28T00:27:23;29.93;;;17.53;;
12356;SDS011;6243;51.244;6.774;2024-02-28T00:29:48;28.73;;;17.37;;
12356;SDS011;6243;51.244;6.774;2024-02-28T00:32:14;31.87;;;18.20;;
12356;SDS011;6243;51.244;6.774;2024-02-28T00:34:39;28.50;;;17.07;;
12356;SDS011;6243;51.244;6.774;2024-02-28T00:37:05;32.20;;;18.53;;
12356;SDS011;6243;51.244;6.774;2024-02-28T00:39:30;31.33;;;19.07;;
12356;SDS011;6243;51.244;6.774;2024-02-28T00:41:56;29.17;;;18.37;;
12356;SDS011;6243;51.244;6.774;2024-02-28T00:44:23;29.77;;;17.93;;
12356;SDS011;6243;51.244;6.774;2024-02-28T00:46:48;31.87;;;18.43;;
12356;SDS011;6243;51.244;6.774;2024-02-28T00:49:14;29.27;;;17.20;;
12356;SDS011;6243;51.244;6.774;2024-02-28T00:51:39;29.57;;;17.73;;
12356;SDS011;6243;51.244;6.774;2024-02-28T00:54:05;30.47;;;18.10;;
12356;SDS011;6243;51.244;6.774;2024-02-28T00:56:30;32.07;;;18.57;;
12356;SDS011;6243;51.244;6.774;2024-02-28T00:58:56;29.07;;;17.97;;
12356;SDS011;6243;51.244;6.774;2024-02-28T01:01:22;25.47;;;16.67;;
12356;SDS011;6243;51.244;6.774;2024-02-28T01:03:48;28.80;;;16.13;;
12356;SDS011;6243;51.244;6.774;2024-02-28T01:06:13;28.70;;;16.47;;
12356;SDS011;6243;51.244;6.774;2024-02-28T01:08:39;29.27;;;17.57;;
12356;SDS011;6243;51.244;6.774;2024-02-28T01:11:04;27.47;;;17.53;;
12356;SDS011;6243;51.244;6.774;2024-02-28T01:13:30;30.40;;;16.90;;
12356;SDS011;6243;51.244;6.774;2024-02-28T01:15:55;25.20;;;16.47;;
12356;SDS011;6243;51.244;6.774;2024-02-28T01:18:22;28.77;;;16.40;;
12356;SDS011;6243;51.244;6.774;2024-02-28T01:20:48;25.80;;;15.90;;
12356;SDS011;6243;51.244;6.774;2024-02-28T01:23:13;27.87;;;16.77;;
12356;SDS011;6243;51.244;6.774;2024-02-28T01:25:39;25.23;;;15.67;;
12356;SDS011;6243;51.244;6.774;2024-02-28T01:28:04;27.30;;;16.47;;
12356;SDS011;6243;51.244;6.774;2024-02-28T01:30:30;28.13;;;16.67;;
12356;SDS011;6243;51.244;6.774;2024-02-28T01:32:55;26.50;;;16.10;;
12356;SDS011;6243;51.244;6.774;2024-02-28T01:35:22;30.10;;;18.37;;
12356;SDS011;6243;51.244;6.774;2024-02-28T01:37:48;29.30;;;17.40;;
12356;SDS011;6243;51.244;6.774;2024-02-28T01:40:13;28.40;;;16.53;;
12356;SDS011;6243;51.244;6.774;2024-02-28T01:42:39;28.27;;;17.20;;
12356;SDS011;6243;51.244;6.774;2024-02-28T01:45:05;27.20;;;17.10;;
12356;SDS011;6243;51.244;6.774;2024-02-28T01:47:31;25.97;;;15.70;;
12356;SDS011;6243;51.244;6.774;2024-02-28T01:49:57;27.93;;;17.37;;
12356;SDS011;6243;51.244;6.774;2024-02-28T01:52:24;30.07;;;18.00;;
12356;SDS011;6243;51.244;6.774;2024-02-28T01:54:49;28.80;;;17.20;;
12356;SDS011;6243;51.244;6.774;2024-02-28T01:57:15;27.83;;;17.20;;
12356;SDS011;6243;51.244;6.774;2024-02-28T01:59:41;31.17;;;18.43;;
12356;SDS011;6243;51.244;6.774;2024-02-28T02:02:06;28.57;;;17.83;;
12356;SDS011;6243;51.244;6.774;2024-02-28T02:04:32;30.17;;;18.23;;
12356;SDS011;6243;51.244;6.774;2024-02-28T02:06:58;27.93;;;17.57;;
12356;SDS011;6243;51.244;6.774;2024-02-28T02:09:25;30.37;;;17.63;;
12356;SDS011;6243;51.244;6.774;2024-02-28T02:11:51;29.73;;;18.43;;
12356;SDS011;6243;51.244;6.774;2024-02-28T02:14:16;29.77;;;18.10;;
12356;SDS011;6243;51.244;6.774;2024-02-28T02:16:42;31.13;;;18.20;;
12356;SDS011;6243;51.244;6.774;2024-02-28T02:19:08;30.10;;;17.80;;
12356;SDS011;6243;51.244;6.774;2024-02-28T02:21:34;29.93;;;17.77;;
12356;SDS011;6243;51.244;6.774;2024-02-28T02:24:04;34.00;;;20.47;;
12356;SDS011;6243;51.244;6.774;2024-02-28T02:26:30;34.57;;;20.60;;
12356;SDS011;6243;51.244;6.774;2024-02-28T02:28:55;47.03;;;23.77;;
12356;SDS011;6243;51.244;6.774;2024-02-28T02:31:21;38.63;;;22.23;;
12356;SDS011;6243;51.244;6.774;2024-02-28T02:33:46;37.80;;;22.03;;
12356;SDS011;6243;51.244;6.774;2024-02-28T02:36:12;37.83;;;22.47;;
12356;SDS011;6243;51.244;6.774;2024-02-28T02:38:37;38.30;;;21.87;;
12356;SDS011;6243;51.244;6.774;2024-02-28T02:41:04;43.17;;;24.17;;
12356;SDS011;6243;51.244;6.774;2024-02-28T02:43:30;43.90;;;24.97;;
12356;SDS011;6243;51.244;6.774;2024-02-28T02:45:55;44.87;;;26.40;;
12356;SDS011;6243;51.244;6.774;2024-02-28T02:48:21;44.70;;;26.30;;
12356;SDS011;6243;51.244;6.774;2024-02-28T02:50:46;51.63;;;29.77;;
12356;SDS011;6243;51.244;6.774;2024-02-28T02:53:13;54.00;;;30.23;;
12356;SDS011;6243;51.244;6.774;2024-02-28T02:55:38;58.23;;;32.17;;
12356;SDS011;6243;51.244;6.774;2024-02-28T02:58:05;58.53;;;32.30;;
12356;SDS011;6243;51.244;6.774;2024-02-28T03:00:30;63.33;;;33.50;;
12356;SDS011;6243;51.244;6.774;2024-02-28T03:02:56;62.57;;;34.07;;
12356;SDS011;6243;51.244;6.774;2024-02-28T03:05:21;70.53;;;36.87;;
12356;SDS011;6243;51.244;6.774;2024-02-28T03:07:47;64.77;;;34.57;;
12356;SDS011;6243;51.244;6.774;2024-02-28T03:10:13;62.80;;;34.20;;
12356;SDS011;6243;51.244;6.774;2024-02-28T03:12:39;61.60;;;34.43;;
12356;SDS011;6243;51.244;6.774;2024-02-28T03:15:06;69.33;;;36.57;;
12356;SDS011;6243;51.244;6.774;2024-02-28T03:17:32;73.43;;;37.30;;
12356;SDS011;6243;51.244;6.774;2024-02-28T03:19:57;67.33;;;37.97;;
12356;SDS011;6243;51.244;6.774;2024-02-28T03:22:23;71.93;;;37.83;;
12356;SDS011;6243;51.244;6.774;2024-02-28T03:24:48;70.90;;;36.03;;
12356;SDS011;6243;51.244;6.774;2024-02-28T03:27:14;71.93;;;36.93;;
12356;SDS011;6243;51.244;6.774;2024-02-28T03:29:39;64.83;;;34.27;;
12356;SDS011;6243;51.244;6.774;2024-02-28T03:32:06;70.63;;;37.63;;
12356;SDS011;6243;51.244;6.774;2024-02-28T03:34:32;68.30;;;36.27;;
12356;SDS011;6243;51.244;6.774;2024-02-28T03:36:57;62.40;;;33.97;;
12356;SDS011;6243;51.244;6.774;2024-02-28T03:39:23;67.43;;;37.00;;
12356;SDS011;6243;51.244;6.774;2024-02-28T03:41:48;75.03;;;37.60;;
12356;SDS011;6243;51.244;6.774;2024-02-28T03:44:14;74.23;;;38.13;;
12356;SDS011;6243;51.244;6.774;2024-02-28T03:46:39;76.47;;;38.83;;
12356;SDS011;6243;51.244;6.774;2024-02-28T03:49:06;77.70;;;38.17;;
12356;SDS011;6243;51.244;6.774;2024-02-28T03:51:32;81.70;;;40.60;;
12356;SDS011;6243;51.244;6.774;2024-02-28T03:53:57;73.47;;;36.70;;
12356;SDS011;6243;51.244;6.774;2024-02-28T03:56:23;72.17;;;38.43;;
12356;SDS011;6243;51.244;6.774;2024-02-28T03:58:48;80.13;;;40.07;;
12356;SDS011;6243;51.244;6.774;2024-02-28T04:01:14;76.87;;;38.67;;
12356;SDS011;6243;51.244;6.774;2024-02-28T04:03:39;73.87;;;37.10;;
12356;SDS011;6243;51.244;6.774;2024-02-28T04:06:06;83.47;;;38.00;;
12356;SDS011;6243;51.244;6.774;2024-02-28T04:08:32;73.67;;;37.37;;
12356;SDS011;6243;51.244;6.774;2024-02-28T04:10:57;70.17;;;36.80;;
12356;SDS011;6243;51.244;6.774;2024-02-28T04:13:22;69.77;;;36.73;;
12356;SDS011;6243;51.244;6.774;2024-02-28T04:15:48;78.63;;;37.03;;
12356;SDS011;6243;51.244;6.774;2024-02-28T04:18:13;71.70;;;36.00;;
12356;SDS011;6243;51.244;6.774;2024-02-28T04:20:39;77.37;;;37.50;;
12356;SDS011;6243;51.244;6.774;2024-02-28T04:23:06;73.83;;;36.87;;
12356;SDS011;6243;51.244;6.774;2024-02-28T04:25:32;76.83;;;38.23;;
12356;SDS011;6243;51.244;6.774;2024-02-28T04:27:57;70.87;;;37.60;;
12356;SDS011;6243;51.244;6.774;2024-02-28T04:30:23;87.57;;;38.47;;
12356;SDS011;6243;51.244;6.774;2024-02-28T04:32:48;76.43;;;37.70;;
12356;SDS011;6243;51.244;6.774;2024-02-28T04:35:13;82.53;;;39.07;;
12356;SDS011;6243;51.244;6.774;2024-02-28T04:37:39;84.23;;;41.27;;
12356;SDS011;6243;51.244;6.774;2024-02-28T04:40:06;71.57;;;37.07;;
12356;SDS011;6243;51.244;6.774;2024-02-28T04:42:32;72.63;;;36.13;;
12356;SDS011;6243;51.244;6.774;2024-02-28T04:44:58;76.10;;;37.57;;
12356;SDS011;6243;51.244;6.774;2024-02-28T04:47:24;71.27;;;36.47;;
12356;SDS011;6243;51.244;6.774;2024-02-28T04:49:49;85.37;;;37.60;;
12356;SDS011;6243;51.244;6.774;2024-02-28T04:52:15;74.87;;;38.07;;
12356;SDS011;6243;51.244;6.774;2024-02-28T04:54:40;75.97;;;36.23;;
12356;SDS011;6243;51.244;6.774;2024-02-28T04:57:07;78.57;;;35.70;;
12356;SDS011;6243;51.244;6.774;2024-02-28T04:59:32;63.40;;;32.90;;
12356;SDS011;6243;51.244;6.774;2024-02-28T05:01:58;71.70;;;28.17;;
12356;SDS011;6243;51.244;6.774;2024-02-28T05:04:23;49.93;;;27.10;;
12356;SDS011;6243;51.244;6.774;2024-02-28T05:06:49;49.53;;;26.67;;
12356;SDS011;6243;51.244;6.774;2024-02-28T05:09:14;56.83;;;27.57;;
12356;SDS011;6243;51.244;6.774;2024-02-28T05:11:40;60.57;;;25.67;;
12356;SDS011;6243;51.244;6.774;2024-02-28T05:14:07;43.07;;;25.17;;
12356;SDS011;6243;51.244;6.774;2024-02-28T05:16:34;54.03;;;26.83;;
12356;SDS011;6243;51.244;6.774;2024-02-28T05:18:59;55.30;;;27.47;;
12356;SDS011;6243;51.244;6.774;2024-02-28T05:21:25;57.73;;;27.70;;
12356;SDS011;6243;51.244;6.774;2024-02-28T05:23:50;54.10;;;28.07;;
12356;SDS011;6243;51.244;6.774;2024-02-28T05:26:16;56.73;;;30.00;;
12356;SDS011;6243;51.244;6.774;2024-02-28T05:28:41;62.03;;;29.17;;
12356;SDS011;6243;51.244;6.774;2024-02-28T05:31:20;53.43;;;27.97;;
12356;SDS011;6243;51.244;6.774;2024-02-28T05:33:47;54.40;;;28.83;;
12356;SDS011;6243;51.244;6.774;2024-02-28T05:36:12;62.30;;;29.33;;
12356;SDS011;6243;51.244;6.774;2024-02-28T05:38:38;66.30;;;30.67;;
12356;SDS011;6243;51.244;6.774;2024-02-28T05:41:03;61.53;;;29.90;;
12356;SDS011;6243;51.244;6.774;2024-02-28T05:43:29;64.23;;;31.30;;
12356;SDS011;6243;51.244;6.774;2024-02-28T05:45:54;61.13;;;30.43;;
12356;SDS011;6243;51.244;6.774;2024-02-28T05:48:21;70.03;;;31.00;;
12356;SDS011;6243;51.244;6.774;2024-02-28T05:50:47;71.17;;;32.27;;
12356;SDS011;6243;51.244;6.774;2024-02-28T05:53:12;62.10;;;30.17;;
12356;SDS011;6243;51.244;6.774;2024-02-28T05:55:38;65.00;;;30.90;;
12356;SDS011;6243;51.244;6.774;2024-02-28T05:58:03;63.57;;;31.00;;
12356;SDS011;6243;51.244;6.774;2024-02-28T06:00:29;67.30;;;32.53;;
12356;SDS011;6243;51.244;6.774;2024-02-28T06:02:54;68.97;;;32.30;;
12356;SDS011;6243;51.244;6.774;2024-02-28T06:05:21;71.63;;;34.00;;
12356;SDS011;6243;51.244;6.774;2024-02-28T06:07:47;69.40;;;32.37;;
12356;SDS011;6243;51.244;6.774;2024-02-28T06:10:12;71.93;;;34.17;;
12356;SDS011;6243;51.244;6.774;2024-02-28T06:12:38;71.33;;;32.07;;
12356;SDS011;6243;51.244;6.774;2024-02-28T06:15:04;73.17;;;32.13;;
12356;SDS011;6243;51.244;6.774;2024-02-28T06:17:30;73.40;;;33.57;;
12356;SDS011;6243;51.244;6.774;2024-02-28T06:19:59;72.80;;;34.37;;
12356;SDS011;6243;51.244;6.774;2024-02-28T06:22:25;79.33;;;35.30;;
12356;SDS011;6243;51.244;6.774;2024-02-28T06:24:51;77.67;;;35.10;;
12356;SDS011;6243;51.244;6.774;2024-02-28T06:27:16;73.23;;;33.77;;
12356;SDS011;6243;51.244;6.774;2024-02-28T06:29:42;78.67;;;34.77;;
12356;SDS011;6243;51.244;6.774;2024-02-28T06:32:07;81.47;;;34.97;;
12356;SDS011;6243;51.244;6.774;2024-02-28T06:34:33;82.23;;;34.37;;
12356;SDS011;6243;51.244;6.774;2024-02-28T06:36:58;80.07;;;35.73;;
12356;SDS011;6243;51.244;6.774;2024-02-28T06:39:25;82.50;;;35.03;;
12356;SDS011;6243;51.244;6.774;2024-02-28T06:41:51;76.73;;;35.93;;
12356;SDS011;6243;51.244;6.774;2024-02-28T06:44:17;83.67;;;35.83;;
12356;SDS011;6243;51.244;6.774;2024-02-28T06:46:43;81.17;;;35.57;;
12356;SDS011;6243;51.244;6.774;2024-02-28T06:49:09;83.73;;;35.33;;
12356;SDS011;6243;51.244;6.774;2024-02-28T06:51:34;78.60;;;35.17;;
12356;SDS011;6243;51.244;6.774;2024-02-28T06:54:00;86.43;;;36.20;;
12356;SDS011;6243;51.244;6.774;2024-02-28T06:56:26;82.90;;;34.87;;
12356;SDS011;6243;51.244;6.774;2024-02-28T06:58:52;84.43;;;36.13;;
12356;SDS011;6243;51.244;6.774;2024-02-28T07:01:17;80.27;;;33.33;;
12356;SDS011;6243;51.244;6.774;2024-02-28T07:03:43;78.87;;;33.67;;
12356;SDS011;6243;51.244;6.774;2024-02-28T07:06:09;79.30;;;35.10;;
12356;SDS011;6243;51.244;6.774;2024-02-28T07:08:34;81.60;;;34.37;;
12356;SDS011;6243;51.244;6.774;2024-02-28T07:11:00;81.63;;;35.03;;
12356;SDS011;6243;51.244;6.774;2024-02-28T07:13:27;75.10;;;32.03;;
12356;SDS011;6243;51.244;6.774;2024-02-28T07:15:52;77.77;;;33.57;;
12356;SDS011;6243;51.244;6.774;2024-02-28T07:18:18;76.77;;;32.90;;
12356;SDS011;6243;51.244;6.774;2024-02-28T07:20:43;80.50;;;34.00;;
12356;SDS011;6243;51.244;6.774;2024-02-28T07:23:09;78.40;;;32.97;;
12356;SDS011;6243;51.244;6.774;2024-02-28T07:25:34;76.60;;;34.83;;
12356;SDS011;6243;51.244;6.774;2024-02-28T07:27:59;81.53;;;33.73;;
12356;SDS011;6243;51.244;6.774;2024-02-28T07:30:26;90.83;;;36.60;;
12356;SDS011;6243;51.244;6.774;2024-02-28T07:32:52;79.03;;;33.67;;
12356;SDS011;6243;51.244;6.774;2024-02-28T07:35:17;77.47;;;33.73;;
12356;SDS011;6243;51.244;6.774;2024-02-28T07:37:43;70.83;;;30.97;;
12356;SDS011;6243;51.244;6.774;2024-02-28T07:40:08;76.53;;;33.40;;
12356;SDS011;6243;51.244;6.774;2024-02-28T07:42:34;71.33;;;32.00;;
12356;SDS011;6243;51.244;6.774;2024-02-28T07:45:00;75.90;;;32.17;;
12356;SDS011;6243;51.244;6.774;2024-02-28T07:47:27;76.63;;;33.50;;
12356;SDS011;6243;51.244;6.774;2024-02-28T07:49:52;77.23;;;33.43;;
12356;SDS011;6243;51.244;6.774;2024-02-28T07:52:18;80.10;;;32.83;;
12356;SDS011;6243;51.244;6.774;2024-02-28T07:54:43;77.53;;;33.90;;
12356;SDS011;6243;51.244;6.774;2024-02-28T07:57:09;70.53;;;33.47;;
12356;SDS011;6243;51.244;6.774;2024-02-28T07:59:38;78.10;;;34.07;;
12356;SDS011;6243;51.244;6.774;2024-02-28T08:02:04;68.50;;;31.13;;
12356;SDS011;6243;51.244;6.774;2024-02-28T08:04:31;69.50;;;30.70;;
12356;SDS011;6243;51.244;6.774;2024-02-28T08:06:56;68.53;;;31.17;;
12356;SDS011;6243;51.244;6.774;2024-02-28T08:09:22;71.03;;;31.63;;
12356;SDS011;6243;51.244;6.774;2024-02-28T08:11:47;70.90;;;30.40;;
12356;SDS011;6243;51.244;6.774;2024-02-28T08:14:13;67.57;;;30.40;;
12356;SDS011;6243;51.244;6.774;2024-02-28T08:16:38;64.20;;;30.00;;
12356;SDS011;6243;51.244;6.774;2024-02-28T08:19:04;65.87;;;30.40;;
12356;SDS011;6243;51.244;6.774;2024-02-28T08:21:31;63.73;;;29.43;;
12356;SDS011;6243;51.244;6.774;2024-02-28T08:23:56;71.80;;;31.90;;
12356;SDS011;6243;51.244;6.774;2024-02-28T08:26:22;66.33;;;30.80;;
12356;SDS011;6243;51.244;6.774;2024-02-28T08:28:48;63.97;;;28.80;;
12356;SDS011;6243;51.244;6.774;2024-02-28T08:31:13;66.73;;;30.93;;
12356;SDS011;6243;51.244;6.774;2024-02-28T08:33:40;69.70;;;32.47;;
12356;SDS011;6243;51.244;6.774;2024-02-28T08:36:06;65.60;;;30.10;;
12356;SDS011;6243;51.244;6.774;2024-02-28T08:38:33;61.67;;;30.97;;
12356;SDS011;6243;51.244;6.774;2024-02-28T08:40:59;59.83;;;28.93;;
12356;SDS011;6243;51.244;6.774;2024-02-28T08:43:24;67.70;;;29.97;;
12356;SDS011;6243;51.244;6.774;2024-02-28T08:45:50;65.83;;;30.37;;
12356;SDS011;6243;51.244;6.774;2024-02-28T08:48:15;69.03;;;30.97;;
12356;SDS011;6243;51.244;6.774;2024-02-28T08:50:41;60.83;;;29.57;;
12356;SDS011;6243;51.244;6.774;2024-02-28T08:53:07;66.60;;;32.37;;
12356;SDS011;6243;51.244;6.774;2024-02-28T08:55:33;64.77;;;29.03;;
12356;SDS011;6243;51.244;6.774;2024-02-28T08:57:59;58.87;;;28.63;;
12356;SDS011;6243;51.244;6.774;2024-02-28T09:00:24;60.33;;;28.73;;
12356;SDS011;6243;51.244;6.774;2024-02-28T09:02:50;63.47;;;29.03;;
12356;SDS011;6243;51.244;6.774;2024-02-28T09:05:16;61.20;;;28.77;;
12356;SDS011;6243;51.244;6.774;2024-02-28T09:07:41;59.03;;;27.60;;
12356;SDS011;6243;51.244;6.774;2024-02-28T09:10:07;64.90;;;29.63;;
12356;SDS011;6243;51.244;6.774;2024-02-28T09:12:34;60.03;;;27.80;;
12356;SDS011;6243;51.244;6.774;2024-02-28T09:15:00;69.30;;;31.97;;
12356;SDS011;6243;51.244;6.774;2024-02-28T09:17:26;61.13;;;29.43;;
12356;SDS011;6243;51.244;6.774;2024-02-28T09:19:52;62.73;;;28.73;;
12356;SDS011;6243;51.244;6.774;2024-02-28T09:22:17;60.33;;;28.97;;
12356;SDS011;6243;51.244;6.774;2024-02-28T09:24:43;66.60;;;30.87;;
12356;SDS011;6243;51.244;6.774;2024-02-28T09:27:09;62.80;;;28.70;;
12356;SDS011;6243;51.244;6.774;2024-02-28T09:29:35;58.43;;;28.57;;
12356;SDS011;6243;51.244;6.774;2024-02-28T09:32:01;58.47;;;28.23;;
12356;SDS011;6243;51.244;6.774;2024-02-28T09:34:27;58.83;;;27.77;;
12356;SDS011;6243;51.244;6.774;2024-02-28T09:36:52;56.87;;;28.03;;
12356;SDS011;6243;51.244;6.774;2024-02-28T09:39:18;51.17;;;25.60;;
12356;SDS011;6243;51.244;6.774;2024-02-28T09:41:43;50.90;;;25.43;;
12356;SDS011;6243;51.244;6.774;2024-02-28T09:44:13;55.60;;;27.63;;
12356;SDS011;6243;51.244;6.774;2024-02-28T09:46:43;50.87;;;26.40;;
12356;SDS011;6243;51.244;6.774;2024-02-28T09:49:09;64.17;;;32.00;;
12356;SDS011;6243;51.244;6.774;2024-02-28T09:51:35;51.63;;;27.50;;
12356;SDS011;6243;51.244;6.774;2024-02-28T09:54:01;51.70;;;26.53;;
12356;SDS011;6243;51.244;6.774;2024-02-28T09:56:27;54.47;;;27.23;;
12356;SDS011;6243;51.244;6.774;2024-02-28T09:58:52;52.07;;;26.93;;
12356;SDS011;6243;51.244;6.774;2024-02-28T10:01:19;59.90;;;29.07;;
12356;SDS011;6243;51.244;6.774;2024-02-28T10:03:47;54.67;;;29.03;;
12356;SDS011;6243;51.244;6.774;2024-02-28T10:06:15;49.03;;;25.33;;
12356;SDS011;6243;51.244;6.774;2024-02-28T10:08:41;53.37;;;25.83;;
12356;SDS011;6243;51.244;6.774;2024-02-28T10:11:06;45.83;;;26.33;;
12356;SDS011;6243;51.244;6.774;2024-02-28T10:13:32;45.80;;;24.60;;
12356;SDS011;6243;51.244;6.774;2024-02-28T10:15:57;47.80;;;24.63;;
12356;SDS011;6243;51.244;6.774;2024-02-28T10:18:23;46.43;;;24.93;;
12356;SDS011;6243;51.244;6.774;2024-02-28T10:20:50;47.83;;;25.57;;
12356;SDS011;6243;51.244;6.774;2024-02-28T10:23:15;53.50;;;28.23;;
12356;SDS011;6243;51.244;6.774;2024-02-28T10:25:42;50.83;;;25.83;;
12356;SDS011;6243;51.244;6.774;2024-02-28T10:28:07;46.50;;;24.63;;
12356;SDS011;6243;51.244;6.774;2024-02-28T10:30:38;47.57;;;25.63;;
12356;SDS011;6243;51.244;6.774;2024-02-28T10:33:04;48.63;;;25.77;;
12356;SDS011;6243;51.244;6.774;2024-02-28T10:35:30;47.40;;;25.70;;
12356;SDS011;6243;51.244;6.774;2024-02-28T10:37:57;43.27;;;24.10;;
12356;SDS011;6243;51.244;6.774;2024-02-28T10:40:23;40.90;;;23.97;;
12356;SDS011;6243;51.244;6.774;2024-02-28T10:42:49;44.53;;;24.33;;
12356;SDS011;6243;51.244;6.774;2024-02-28T10:45:15;39.83;;;22.57;;
12356;SDS011;6243;51.244;6.774;2024-02-28T10:47:42;43.97;;;23.47;;
12356;SDS011;6243;51.244;6.774;2024-02-28T10:50:08;39.90;;;23.33;;
12356;SDS011;6243;51.244;6.774;2024-02-28T10:52:34;41.10;;;22.67;;
12356;SDS011;6243;51.244;6.774;2024-02-28T10:55:09;42.37;;;23.17;;
12356;SDS011;6243;51.244;6.774;2024-02-28T10:57:35;39.00;;;23.03;;
12356;SDS011;6243;51.244;6.774;2024-02-28T11:00:02;39.13;;;22.17;;
12356;SDS011;6243;51.244;6.774;2024-02-28T11:02:28;39.90;;;23.97;;
12356;SDS011;6243;51.244;6.774;2024-02-28T11:04:54;38.67;;;21.83;;
12356;SDS011;6243;51.244;6.774;2024-02-28T11:07:20;38.50;;;22.20;;
12356;SDS011;6243;51.244;6.774;2024-02-28T11:09:46;36.87;;;22.57;;
12356;SDS011;6243;51.244;6.774;2024-02-28T11:12:25;39.40;;;22.30;;
12356;SDS011;6243;51.244;6.774;2024-02-28T11:14:55;39.17;;;21.87;;
12356;SDS011;6243;51.244;6.774;2024-02-28T11:17:25;40.97;;;23.67;;
12356;SDS011;6243;51.244;6.774;2024-02-28T11:19:51;38.77;;;22.33;;
12356;SDS011;6243;51.244;6.774;2024-02-28T11:22:17;41.40;;;22.93;;
12356;SDS011;6243;51.244;6.774;2024-02-28T11:24:43;36.57;;;20.60;;
12356;SDS011;6243;51.244;6.774;2024-02-28T11:27:11;39.13;;;22.70;;
12356;SDS011;6243;51.244;6.774;2024-02-28T11:29:38;34.23;;;20.43;;
12356;SDS011;6243;51.244;6.774;2024-02-28T11:32:05;33.73;;;20.23;;
12356;SDS011;6243;51.244;6.774;2024-02-28T11:34:31;35.27;;;21.27;;
12356;SDS011;6243;51.244;6.774;2024-02-28T11:36:56;36.90;;;20.67;;
12356;SDS011;6243;51.244;6.774;2024-02-28T11:39:22;33.43;;;20.90;;
12356;SDS011;6243;51.244;6.774;2024-02-28T11:41:47;33.37;;;19.30;;
12356;SDS011;6243;51.244;6.774;2024-02-28T11:44:13;32.43;;;20.43;;
12356;SDS011;6243;51.244;6.774;2024-02-28T11:46:43;31.97;;;19.77;;
12356;SDS011;6243;51.244;6.774;2024-02-28T11:49:09;32.83;;;19.73;;
12356;SDS011;6243;51.244;6.774;2024-02-28T11:51:34;33.13;;;19.60;;
12356;SDS011;6243;51.244;6.774;2024-02-28T11:54:01;31.27;;;18.63;;
12356;SDS011;6243;51.244;6.774;2024-02-28T11:56:26;26.37;;;17.57;;
12356;SDS011;6243;51.244;6.774;2024-02-28T11:58:52;29.13;;;17.60;;
12356;SDS011;6243;51.244;6.774;2024-02-28T12:01:18;32.20;;;18.57;;
12356;SDS011;6243;51.244;6.774;2024-02-28T12:03:46;28.70;;;17.57;;
12356;SDS011;6243;51.244;6.774;2024-02-28T12:06:11;29.83;;;17.27;;
12356;SDS011;6243;51.244;6.774;2024-02-28T12:08:37;26.87;;;17.40;;
12356;SDS011;6243;51.244;6.774;2024-02-28T12:11:05;23.53;;;14.97;;
12356;SDS011;6243;51.244;6.774;2024-02-28T12:13:31;26.30;;;16.53;;
12356;SDS011;6243;51.244;6.774;2024-02-28T12:15:57;25.50;;;16.00;;
12356;SDS011;6243;51.244;6.774;2024-02-28T12:18:22;26.80;;;15.87;;
12356;SDS011;6243;51.244;6.774;2024-02-28T12:20:49;28.37;;;16.47;;
12356;SDS011;6243;51.244;6.774;2024-02-28T12:23:14;26.13;;;15.63;;
12356;SDS011;6243;51.244;6.774;2024-02-28T12:25:40;24.97;;;16.07;;
12356;SDS011;6243;51.244;6.774;2024-02-28T12:28:06;28.40;;;17.40;;
12356;SDS011;6243;51.244;6.774;2024-02-28T12:30:31;24.30;;;15.70;;
12356;SDS011;6243;51.244;6.774;2024-02-28T12:33:04;27.73;;;15.83;;
12356;SDS011;6243;51.244;6.774;2024-02-28T12:35:30;25.63;;;16.17;;
12356;SDS011;6243;51.244;6.774;2024-02-28T12:37:56;26.43;;;16.03;;
12356;SDS011;6243;51.244;6.774;2024-02-28T12:40:22;23.17;;;14.00;;
12356;SDS011;6243;51.244;6.774;2024-02-28T12:42:47;24.10;;;14.83;;
12356;SDS011;6243;51.244;6.774;2024-02-28T12:45:13;19.87;;;13.80;;
12356;SDS011;6243;51.244;6.774;2024-02-28T12:47:39;22.40;;;14.03;;
12356;SDS011;6243;51.244;6.774;2024-02-28T12:50:05;26.60;;;15.37;;
12356;SDS011;6243;51.244;6.774;2024-02-28T12:52:31;22.03;;;13.83;;
12356;SDS011;6243;51.244;6.774;2024-02-28T12:54:58;26.37;;;15.00;;
12356;SDS011;6243;51.244;6.774;2024-02-28T12:57:23;25.83;;;15.80;;
12356;SDS011;6243;51.244;6.774;2024-02-28T12:59:49;23.53;;;15.93;;
12356;SDS011;6243;51.244;6.774;2024-02-28T13:02:14;24.67;;;14.70;;
12356;SDS011;6243;51.244;6.774;2024-02-28T13:04:40;26.13;;;15.27;;
12356;SDS011;6243;51.244;6.774;2024-02-28T13:07:05;27.77;;;16.77;;
12356;SDS011;6243;51.244;6.774;2024-02-28T13:09:31;24.50;;;16.23;;
12356;SDS011;6243;51.244;6.774;2024-02-28T13:11:58;25.90;;;16.43;;
12356;SDS011;6243;51.244;6.774;2024-02-28T13:14:23;25.70;;;15.70;;
12356;SDS011;6243;51.244;6.774;2024-02-28T13:16:49;23.07;;;15.87;;
12356;SDS011;6243;51.244;6.774;2024-02-28T13:19:14;23.30;;;15.97;;
12356;SDS011;6243;51.244;6.774;2024-02-28T13:21:40;24.40;;;15.97;;
12356;SDS011;6243;51.244;6.774;2024-02-28T13:24:05;24.63;;;15.23;;
12356;SDS011;6243;51.244;6.774;2024-02-28T13:26:31;23.63;;;15.20;;
12356;SDS011;6243;51.244;6.774;2024-02-28T13:28:58;26.73;;;16.30;;
12356;SDS011;6243;51.244;6.774;2024-02-28T13:31:23;24.60;;;14.80;;
12356;SDS011;6243;51.244;6.774;2024-02-28T13:33:49;23.27;;;14.70;;
12356;SDS011;6243;51.244;6.774;2024-02-28T13:36:14;25.27;;;16.17;;
12356;SDS011;6243;51.244;6.774;2024-02-28T13:38:40;26.10;;;16.03;;
12356;SDS011;6243;51.244;6.774;2024-02-28T13:41:05;26.97;;;16.57;;
12356;SDS011;6243;51.244;6.774;2024-02-28T13:43:31;23.43;;;15.70;;
12356;SDS011;6243;51.244;6.774;2024-02-28T13:45:58;23.63;;;14.70;;
12356;SDS011;6243;51.244;6.774;2024-02-28T13:48:23;23.90;;;15.13;;
12356;SDS011;6243;51.244;6.774;2024-02-28T13:50:49;25.50;;;16.13;;
12356;SDS011;6243;51.244;6.774;2024-02-28T13:53:15;22.27;;;14.53;;
12356;SDS011;6243;51.244;6.774;2024-02-28T13:55:40;26.27;;;15.50;;
12356;SDS011;6243;51.244;6.774;2024-02-28T13:58:06;25.23;;;15.80;;
12356;SDS011;6243;51.244;6.774;2024-02-28T14:00:32;24.70;;;15.27;;
12356;SDS011;6243;51.244;6.774;2024-02-28T14:02:59;21.20;;;14.20;;
12356;SDS011;6243;51.244;6.774;2024-02-28T14:05:25;22.27;;;14.43;;
12356;SDS011;6243;51.244;6.774;2024-02-28T14:07:51;19.23;;;13.07;;
12356;SDS011;6243;51.244;6.774;2024-02-28T14:10:16;22.90;;;14.50;;
12356;SDS011;6243;51.244;6.774;2024-02-28T14:12:42;23.00;;;14.67;;
12356;SDS011;6243;51.244;6.774;2024-02-28T14:15:08;25.87;;;14.77;;
12356;SDS011;6243;51.244;6.774;2024-02-28T14:17:33;23.37;;;14.70;;
12356;SDS011;6243;51.244;6.774;2024-02-28T14:20:00;22.03;;;14.73;;
12356;SDS011;6243;51.244;6.774;2024-02-28T14:22:26;25.20;;;15.00;;
12356;SDS011;6243;51.244;6.774;2024-02-28T14:24:51;25.40;;;15.17;;